sensor_id;sensor_type;location;lat;lon;timestamp;P1;durP1;ratioP1;P2;durP2;ratioP2
36441;SDS011;64346;50.820;16.274;2023-09-07T00:00:15;28.60;;;21.13;;
36441;SDS011;64346;50.820;16.274;2023-09-07T00:03:03;30.45;;;20.65;;
36441;SDS011;64346;50.820;16.274;2023-09-07T00:05:31;30.80;;;20.77;;
36441;SDS011;64346;50.820;16.274;2023-09-07T00:07:58;28.10;;;19.42;;
36441;SDS011;64346;50.820;16.274;2023-09-07T00:10:26;31.48;;;20.13;;
36441;SDS011;64346;50.820;16.274;2023-09-07T00:12:53;28.35;;;18.20;;
36441;SDS011;64346;50.820;16.274;2023-09-07T00:15:23;27.98;;;18.95;;
36441;SDS011;64346;50.820;16.274;2023-09-07T00:17:52;30.15;;;20.25;;
36441;SDS011;64346;50.820;16.274;2023-09-07T00:20:20;29.02;;;17.38;;
36441;SDS011;64346;50.820;16.274;2023-09-07T00:22:47;26.27;;;17.70;;
36441;SDS011;64346;50.820;16.274;2023-09-07T00:25:19;30.88;;;18.27;;
36441;SDS011;64346;50.820;16.274;2023-09-07T00:27:46;25.58;;;17.60;;
36441;SDS011;64346;50.820;16.274;2023-09-07T00:30:14;25.92;;;16.83;;
36441;SDS011;64346;50.820;16.274;2023-09-07T00:32:41;24.90;;;16.77;;
36441;SDS011;64346;50.820;16.274;2023-09-07T00:35:08;24.45;;;16.70;;
36441;SDS011;64346;50.820;16.274;2023-09-07T00:37:36;25.40;;;16.02;;
36441;SDS011;64346;50.820;16.274;2023-09-07T00:40:04;23.67;;;16.63;;
36441;SDS011;64346;50.820;16.274;2023-09-07T00:42:32;25.88;;;17.33;;
36441;SDS011;64346;50.820;16.274;2023-09-07T00:44:59;25.45;;;16.20;;
36441;SDS011;64346;50.820;16.274;2023-09-07T00:47:27;25.50;;;17.45;;
36441;SDS011;64346;50.820;16.274;2023-09-07T00:49:54;27.40;;;16.90;;
36441;SDS011;64346;50.820;16.274;2023-09-07T00:52:24;25.15;;;17.80;;
36441;SDS011;64346;50.820;16.274;2023-09-07T00:54:51;24.23;;;16.65;;
36441;SDS011;64346;50.820;16.274;2023-09-07T00:57:21;23.92;;;15.75;;
36441;SDS011;64346;50.820;16.274;2023-09-07T00:59:49;23.48;;;16.73;;
36441;SDS011;64346;50.820;16.274;2023-09-07T01:02:16;28.35;;;17.27;;
36441;SDS011;64346;50.820;16.274;2023-09-07T01:04:44;26.42;;;16.50;;
36441;SDS011;64346;50.820;16.274;2023-09-07T01:07:15;26.10;;;15.20;;
36441;SDS011;64346;50.820;16.274;2023-09-07T01:09:47;25.98;;;15.70;;
36441;SDS011;64346;50.820;16.274;2023-09-07T01:12:18;21.90;;;14.38;;
36441;SDS011;64346;50.820;16.274;2023-09-07T01:14:48;21.13;;;14.82;;
36441;SDS011;64346;50.820;16.274;2023-09-07T01:17:15;22.42;;;14.60;;
36441;SDS011;64346;50.820;16.274;2023-09-07T01:19:43;24.33;;;15.88;;
36441;SDS011;64346;50.820;16.274;2023-09-07T01:22:12;24.27;;;15.70;;
36441;SDS011;64346;50.820;16.274;2023-09-07T01:24:40;24.15;;;17.17;;
36441;SDS011;64346;50.820;16.274;2023-09-07T01:27:09;22.80;;;14.60;;
36441;SDS011;64346;50.820;16.274;2023-09-07T01:29:36;25.70;;;14.73;;
36441;SDS011;64346;50.820;16.274;2023-09-07T01:32:06;22.60;;;16.00;;
36441;SDS011;64346;50.820;16.274;2023-09-07T01:34:33;24.52;;;15.05;;
36441;SDS011;64346;50.820;16.274;2023-09-07T01:37:07;23.90;;;15.73;;
36441;SDS011;64346;50.820;16.274;2023-09-07T01:39:37;28.92;;;19.33;;
36441;SDS011;64346;50.820;16.274;2023-09-07T01:42:04;26.80;;;17.00;;
36441;SDS011;64346;50.820;16.274;2023-09-07T01:44:31;22.42;;;15.50;;
36441;SDS011;64346;50.820;16.274;2023-09-07T01:46:58;24.35;;;15.90;;
36441;SDS011;64346;50.820;16.274;2023-09-07T01:49:26;25.00;;;15.55;;
36441;SDS011;64346;50.820;16.274;2023-09-07T02:12:57;45.23;;;28.30;;
36441;SDS011;64346;50.820;16.274;2023-09-07T02:15:27;37.92;;;25.13;;
36441;SDS011;64346;50.820;16.274;2023-09-07T02:17:54;38.92;;;26.77;;
36441;SDS011;64346;50.820;16.274;2023-09-07T02:20:22;47.47;;;28.67;;
36441;SDS011;64346;50.820;16.274;2023-09-07T02:22:49;41.78;;;26.65;;
36441;SDS011;64346;50.820;16.274;2023-09-07T02:25:19;42.40;;;26.90;;
36441;SDS011;64346;50.820;16.274;2023-09-07T02:27:46;39.10;;;26.08;;
36441;SDS011;64346;50.820;16.274;2023-09-07T02:30:14;35.60;;;23.08;;
36441;SDS011;64346;50.820;16.274;2023-09-07T02:32:44;36.08;;;23.40;;
36441;SDS011;64346;50.820;16.274;2023-09-07T02:35:14;37.10;;;22.92;;
36441;SDS011;64346;50.820;16.274;2023-09-07T02:37:41;31.67;;;21.20;;
36441;SDS011;64346;50.820;16.274;2023-09-07T02:40:11;31.88;;;20.17;;
36441;SDS011;64346;50.820;16.274;2023-09-07T02:42:40;29.85;;;19.70;;
36441;SDS011;64346;50.820;16.274;2023-09-07T02:45:11;29.27;;;18.85;;
36441;SDS011;64346;50.820;16.274;2023-09-07T02:47:39;27.40;;;18.02;;
36441;SDS011;64346;50.820;16.274;2023-09-07T02:50:09;24.95;;;17.13;;
36441;SDS011;64346;50.820;16.274;2023-09-07T02:52:36;25.92;;;16.10;;
36441;SDS011;64346;50.820;16.274;2023-09-07T02:55:04;24.98;;;14.60;;
36441;SDS011;64346;50.820;16.274;2023-09-07T02:57:33;26.35;;;17.27;;
36441;SDS011;64346;50.820;16.274;2023-09-07T03:00:06;25.73;;;16.95;;
36441;SDS011;64346;50.820;16.274;2023-09-07T03:02:34;25.42;;;16.75;;
36441;SDS011;64346;50.820;16.274;2023-09-07T03:05:06;25.08;;;16.83;;
36441;SDS011;64346;50.820;16.274;2023-09-07T03:07:34;24.65;;;16.80;;
36441;SDS011;64346;50.820;16.274;2023-09-07T03:10:02;25.60;;;17.15;;
36441;SDS011;64346;50.820;16.274;2023-09-07T03:12:31;28.45;;;18.95;;
36441;SDS011;64346;50.820;16.274;2023-09-07T03:14:59;26.92;;;17.77;;
36441;SDS011;64346;50.820;16.274;2023-09-07T03:17:28;29.15;;;19.13;;
36441;SDS011;64346;50.820;16.274;2023-09-07T03:19:56;28.95;;;18.88;;
36441;SDS011;64346;50.820;16.274;2023-09-07T03:22:24;29.27;;;19.92;;
36441;SDS011;64346;50.820;16.274;2023-09-07T03:24:51;28.70;;;17.92;;
36441;SDS011;64346;50.820;16.274;2023-09-07T03:27:21;29.75;;;19.90;;
36441;SDS011;64346;50.820;16.274;2023-09-07T03:29:51;25.00;;;16.73;;
36441;SDS011;64346;50.820;16.274;2023-09-07T03:32:18;24.67;;;16.90;;
36441;SDS011;64346;50.820;16.274;2023-09-07T03:34:48;27.85;;;17.80;;
36441;SDS011;64346;50.820;16.274;2023-09-07T03:37:15;31.98;;;20.65;;
36441;SDS011;64346;50.820;16.274;2023-09-07T03:39:44;33.67;;;21.33;;
36441;SDS011;64346;50.820;16.274;2023-09-07T03:42:11;37.85;;;24.23;;
36441;SDS011;64346;50.820;16.274;2023-09-07T03:44:39;37.78;;;25.77;;
36441;SDS011;64346;50.820;16.274;2023-09-07T03:47:06;43.17;;;26.92;;
36441;SDS011;64346;50.820;16.274;2023-09-07T03:49:36;41.35;;;25.17;;
36441;SDS011;64346;50.820;16.274;2023-09-07T03:52:03;39.38;;;24.75;;
36441;SDS011;64346;50.820;16.274;2023-09-07T03:54:31;37.83;;;23.15;;
36441;SDS011;64346;50.820;16.274;2023-09-07T03:57:00;41.08;;;26.25;;
36441;SDS011;64346;50.820;16.274;2023-09-07T03:59:30;40.70;;;26.17;;
36441;SDS011;64346;50.820;16.274;2023-09-07T04:02:00;38.92;;;25.23;;
36441;SDS011;64346;50.820;16.274;2023-09-07T04:04:27;36.95;;;23.38;;
36441;SDS011;64346;50.820;16.274;2023-09-07T04:06:54;38.50;;;23.48;;
36441;SDS011;64346;50.820;16.274;2023-09-07T04:09:22;34.17;;;21.48;;
36441;SDS011;64346;50.820;16.274;2023-09-07T04:11:49;30.55;;;20.55;;
36441;SDS011;64346;50.820;16.274;2023-09-07T04:14:17;34.22;;;21.15;;
36441;SDS011;64346;50.820;16.274;2023-09-07T04:16:46;31.83;;;19.45;;
36441;SDS011;64346;50.820;16.274;2023-09-07T04:19:13;30.15;;;20.73;;
36441;SDS011;64346;50.820;16.274;2023-09-07T04:21:43;34.30;;;20.15;;
36441;SDS011;64346;50.820;16.274;2023-09-07T04:24:11;34.05;;;21.50;;
36441;SDS011;64346;50.820;16.274;2023-09-07T04:26:38;32.28;;;21.10;;
36441;SDS011;64346;50.820;16.274;2023-09-07T04:29:06;31.48;;;20.25;;
36441;SDS011;64346;50.820;16.274;2023-09-07T04:31:36;30.67;;;20.40;;
36441;SDS011;64346;50.820;16.274;2023-09-07T04:34:04;31.70;;;19.08;;
36441;SDS011;64346;50.820;16.274;2023-09-07T04:36:31;33.25;;;21.02;;
36441;SDS011;64346;50.820;16.274;2023-09-07T04:38:58;35.53;;;22.80;;
36441;SDS011;64346;50.820;16.274;2023-09-07T04:41:28;34.33;;;20.73;;
36441;SDS011;64346;50.820;16.274;2023-09-07T04:43:56;32.22;;;20.98;;
36441;SDS011;64346;50.820;16.274;2023-09-07T04:46:25;31.05;;;18.35;;
36441;SDS011;64346;50.820;16.274;2023-09-07T04:48:53;31.88;;;18.20;;
36441;SDS011;64346;50.820;16.274;2023-09-07T04:51:20;28.58;;;16.55;;
36441;SDS011;64346;50.820;16.274;2023-09-07T04:53:47;26.35;;;15.77;;
36441;SDS011;64346;50.820;16.274;2023-09-07T04:56:15;22.30;;;13.90;;
36441;SDS011;64346;50.820;16.274;2023-09-07T04:58:45;26.42;;;14.93;;
36441;SDS011;64346;50.820;16.274;2023-09-07T05:01:12;26.45;;;13.02;;
36441;SDS011;64346;50.820;16.274;2023-09-07T05:03:39;24.52;;;13.23;;
36441;SDS011;64346;50.820;16.274;2023-09-07T05:06:07;20.10;;;11.98;;
36441;SDS011;64346;50.820;16.274;2023-09-07T05:08:34;20.27;;;12.10;;
36441;SDS011;64346;50.820;16.274;2023-09-07T05:11:02;20.85;;;12.18;;
36441;SDS011;64346;50.820;16.274;2023-09-07T05:13:30;22.15;;;12.65;;
36441;SDS011;64346;50.820;16.274;2023-09-07T05:16:00;21.90;;;11.48;;
36441;SDS011;64346;50.820;16.274;2023-09-07T05:18:30;17.95;;;11.00;;
36441;SDS011;64346;50.820;16.274;2023-09-07T05:20:57;19.85;;;10.73;;
36441;SDS011;64346;50.820;16.274;2023-09-07T05:23:25;21.15;;;11.15;;
36441;SDS011;64346;50.820;16.274;2023-09-07T05:25:54;19.33;;;11.05;;
36441;SDS011;64346;50.820;16.274;2023-09-07T05:28:22;31.95;;;23.80;;
36441;SDS011;64346;50.820;16.274;2023-09-07T05:30:49;26.20;;;18.15;;
36441;SDS011;64346;50.820;16.274;2023-09-07T05:33:17;18.73;;;11.15;;
36441;SDS011;64346;50.820;16.274;2023-09-07T05:35:46;17.85;;;10.13;;
36441;SDS011;64346;50.820;16.274;2023-09-07T05:38:16;17.80;;;10.63;;
36441;SDS011;64346;50.820;16.274;2023-09-07T05:40:44;14.07;;;8.82;;
36441;SDS011;64346;50.820;16.274;2023-09-07T05:43:14;17.50;;;11.10;;
36441;SDS011;64346;50.820;16.274;2023-09-07T05:45:41;18.45;;;12.80;;
36441;SDS011;64346;50.820;16.274;2023-09-07T05:48:11;15.10;;;8.35;;
36441;SDS011;64346;50.820;16.274;2023-09-07T05:50:40;19.60;;;9.00;;
36441;SDS011;64346;50.820;16.274;2023-09-07T05:53:10;14.82;;;7.75;;
36441;SDS011;64346;50.820;16.274;2023-09-07T05:55:37;13.25;;;8.07;;
36441;SDS011;64346;50.820;16.274;2023-09-07T05:58:06;13.60;;;8.30;;
36441;SDS011;64346;50.820;16.274;2023-09-07T06:00:35;16.75;;;8.00;;
36441;SDS011;64346;50.820;16.274;2023-09-07T06:03:03;15.50;;;8.48;;
36441;SDS011;64346;50.820;16.274;2023-09-07T06:05:30;17.55;;;9.55;;
36441;SDS011;64346;50.820;16.274;2023-09-07T06:07:58;15.57;;;8.55;;
36441;SDS011;64346;50.820;16.274;2023-09-07T06:10:28;16.80;;;8.63;;
36441;SDS011;64346;50.820;16.274;2023-09-07T06:12:56;17.45;;;9.25;;
36441;SDS011;64346;50.820;16.274;2023-09-07T06:15:23;15.45;;;8.32;;
36441;SDS011;64346;50.820;16.274;2023-09-07T06:17:51;15.77;;;8.40;;
36441;SDS011;64346;50.820;16.274;2023-09-07T06:20:20;14.88;;;8.55;;
36441;SDS011;64346;50.820;16.274;2023-09-07T06:22:48;18.90;;;8.93;;
36441;SDS011;64346;50.820;16.274;2023-09-07T06:25:18;18.67;;;8.50;;
36441;SDS011;64346;50.820;16.274;2023-09-07T06:27:45;16.27;;;9.13;;
36441;SDS011;64346;50.820;16.274;2023-09-07T06:30:15;20.58;;;9.50;;
36441;SDS011;64346;50.820;16.274;2023-09-07T06:32:43;15.90;;;8.90;;
36441;SDS011;64346;50.820;16.274;2023-09-07T06:35:10;16.13;;;8.43;;
36441;SDS011;64346;50.820;16.274;2023-09-07T06:37:37;17.02;;;8.63;;
36441;SDS011;64346;50.820;16.274;2023-09-07T06:40:07;21.90;;;10.05;;
36441;SDS011;64346;50.820;16.274;2023-09-07T06:42:36;18.42;;;9.98;;
36441;SDS011;64346;50.820;16.274;2023-09-07T06:45:03;25.55;;;10.93;;
36441;SDS011;64346;50.820;16.274;2023-09-07T06:47:32;19.52;;;10.90;;
36441;SDS011;64346;50.820;16.274;2023-09-07T06:50:01;18.42;;;9.50;;
36441;SDS011;64346;50.820;16.274;2023-09-07T06:52:32;16.70;;;9.10;;
36441;SDS011;64346;50.820;16.274;2023-09-07T06:54:59;15.52;;;8.13;;
36441;SDS011;64346;50.820;16.274;2023-09-07T06:57:29;13.07;;;7.85;;
36441;SDS011;64346;50.820;16.274;2023-09-07T06:59:59;11.98;;;7.72;;
36441;SDS011;64346;50.820;16.274;2023-09-07T07:02:26;13.57;;;7.40;;
36441;SDS011;64346;50.820;16.274;2023-09-07T07:04:56;13.60;;;6.32;;
36441;SDS011;64346;50.820;16.274;2023-09-07T07:07:24;13.90;;;6.18;;
36441;SDS011;64346;50.820;16.274;2023-09-07T07:09:51;11.93;;;5.85;;
36441;SDS011;64346;50.820;16.274;2023-09-07T07:12:18;10.95;;;5.65;;
36441;SDS011;64346;50.820;16.274;2023-09-07T07:14:45;8.98;;;5.03;;
36441;SDS011;64346;50.820;16.274;2023-09-07T07:17:13;6.93;;;4.53;;
36441;SDS011;64346;50.820;16.274;2023-09-07T07:19:42;9.05;;;4.72;;
36441;SDS011;64346;50.820;16.274;2023-09-07T07:22:10;10.43;;;5.60;;
36441;SDS011;64346;50.820;16.274;2023-09-07T07:24:37;8.90;;;4.82;;
36441;SDS011;64346;50.820;16.274;2023-09-07T07:27:04;9.18;;;4.45;;
36441;SDS011;64346;50.820;16.274;2023-09-07T07:29:32;9.25;;;5.00;;
36441;SDS011;64346;50.820;16.274;2023-09-07T07:32:02;11.52;;;5.25;;
36441;SDS011;64346;50.820;16.274;2023-09-07T07:34:32;8.73;;;5.53;;
36441;SDS011;64346;50.820;16.274;2023-09-07T07:36:59;8.23;;;5.22;;
36441;SDS011;64346;50.820;16.274;2023-09-07T07:39:26;11.20;;;4.88;;
36441;SDS011;64346;50.820;16.274;2023-09-07T07:41:56;12.63;;;6.05;;
36441;SDS011;64346;50.820;16.274;2023-09-07T07:44:23;8.73;;;4.75;;
36441;SDS011;64346;50.820;16.274;2023-09-07T07:46:53;9.23;;;5.07;;
36441;SDS011;64346;50.820;16.274;2023-09-07T07:49:20;9.63;;;5.35;;
36441;SDS011;64346;50.820;16.274;2023-09-07T07:51:50;9.70;;;5.63;;
36441;SDS011;64346;50.820;16.274;2023-09-07T07:54:17;9.93;;;5.22;;
36441;SDS011;64346;50.820;16.274;2023-09-07T07:56:47;9.20;;;5.03;;
36441;SDS011;64346;50.820;16.274;2023-09-07T07:59:14;11.07;;;6.03;;
36441;SDS011;64346;50.820;16.274;2023-09-07T08:01:42;10.65;;;5.22;;
36441;SDS011;64346;50.820;16.274;2023-09-07T08:04:11;12.25;;;5.10;;
36441;SDS011;64346;50.820;16.274;2023-09-07T08:06:39;9.88;;;5.57;;
36441;SDS011;64346;50.820;16.274;2023-09-07T08:09:08;9.77;;;5.53;;
36441;SDS011;64346;50.820;16.274;2023-09-07T08:11:36;9.75;;;5.18;;
36441;SDS011;64346;50.820;16.274;2023-09-07T08:14:03;10.57;;;5.20;;
36441;SDS011;64346;50.820;16.274;2023-09-07T08:16:33;8.48;;;5.28;;
36441;SDS011;64346;50.820;16.274;2023-09-07T08:19:00;10.50;;;5.32;;
36441;SDS011;64346;50.820;16.274;2023-09-07T08:21:28;10.13;;;5.35;;
36441;SDS011;64346;50.820;16.274;2023-09-07T08:23:55;9.73;;;5.47;;
36441;SDS011;64346;50.820;16.274;2023-09-07T08:26:25;8.75;;;5.47;;
36441;SDS011;64346;50.820;16.274;2023-09-07T08:28:52;8.57;;;5.25;;
36441;SDS011;64346;50.820;16.274;2023-09-07T08:31:19;9.05;;;5.05;;
36441;SDS011;64346;50.820;16.274;2023-09-07T08:33:47;8.60;;;5.05;;
36441;SDS011;64346;50.820;16.274;2023-09-07T08:36:15;9.95;;;5.88;;
36441;SDS011;64346;50.820;16.274;2023-09-07T08:38:45;10.05;;;5.30;;
36441;SDS011;64346;50.820;16.274;2023-09-07T08:41:12;9.40;;;5.30;;
36441;SDS011;64346;50.820;16.274;2023-09-07T08:43:44;9.98;;;5.47;;
36441;SDS011;64346;50.820;16.274;2023-09-07T08:46:18;11.43;;;5.25;;
36441;SDS011;64346;50.820;16.274;2023-09-07T08:48:48;13.87;;;5.33;;
36441;SDS011;64346;50.820;16.274;2023-09-07T08:51:19;13.10;;;5.90;;
36441;SDS011;64346;50.820;16.274;2023-09-07T08:53:47;10.00;;;5.07;;
36441;SDS011;64346;50.820;16.274;2023-09-07T08:56:16;11.65;;;5.45;;
36441;SDS011;64346;50.820;16.274;2023-09-07T08:58:46;10.65;;;4.75;;
36441;SDS011;64346;50.820;16.274;2023-09-07T09:01:16;9.38;;;5.43;;
36441;SDS011;64346;50.820;16.274;2023-09-07T09:03:47;9.38;;;4.90;;
36441;SDS011;64346;50.820;16.274;2023-09-07T09:06:16;7.72;;;4.60;;
36441;SDS011;64346;50.820;16.274;2023-09-07T09:08:48;12.90;;;5.93;;
36441;SDS011;64346;50.820;16.274;2023-09-07T09:11:20;9.32;;;5.07;;
36441;SDS011;64346;50.820;16.274;2023-09-07T09:13:52;9.82;;;5.63;;
36441;SDS011;64346;50.820;16.274;2023-09-07T09:16:22;9.45;;;4.95;;
36441;SDS011;64346;50.820;16.274;2023-09-07T09:21:19;7.68;;;4.85;;
36441;SDS011;64346;50.820;16.274;2023-09-07T09:23:50;9.70;;;4.80;;
36441;SDS011;64346;50.820;16.274;2023-09-07T09:26:21;8.48;;;4.88;;
36441;SDS011;64346;50.820;16.274;2023-09-07T09:28:48;8.55;;;4.75;;
36441;SDS011;64346;50.820;16.274;2023-09-07T09:31:16;7.60;;;4.57;;
36441;SDS011;64346;50.820;16.274;2023-09-07T09:33:51;10.50;;;4.80;;
36441;SDS011;64346;50.820;16.274;2023-09-07T09:36:21;11.35;;;4.90;;
36441;SDS011;64346;50.820;16.274;2023-09-07T09:38:50;7.95;;;4.63;;
36441;SDS011;64346;50.820;16.274;2023-09-07T09:41:19;10.05;;;5.03;;
36441;SDS011;64346;50.820;16.274;2023-09-07T09:43:48;7.65;;;4.63;;
36441;SDS011;64346;50.820;16.274;2023-09-07T09:46:19;10.95;;;5.13;;
36441;SDS011;64346;50.820;16.274;2023-09-07T09:48:46;8.93;;;5.10;;
36441;SDS011;64346;50.820;16.274;2023-09-07T09:51:15;8.30;;;5.25;;
36441;SDS011;64346;50.820;16.274;2023-09-07T09:53:43;9.27;;;5.22;;
36441;SDS011;64346;50.820;16.274;2023-09-07T09:56:11;8.30;;;4.88;;
36441;SDS011;64346;50.820;16.274;2023-09-07T09:58:38;10.35;;;4.80;;
36441;SDS011;64346;50.820;16.274;2023-09-07T10:01:06;8.98;;;4.72;;
36441;SDS011;64346;50.820;16.274;2023-09-07T10:03:38;9.27;;;5.78;;
36441;SDS011;64346;50.820;16.274;2023-09-07T10:06:18;7.65;;;4.40;;
36441;SDS011;64346;50.820;16.274;2023-09-07T10:09:02;8.20;;;4.18;;
36441;SDS011;64346;50.820;16.274;2023-09-07T10:11:31;6.43;;;4.03;;
36441;SDS011;64346;50.820;16.274;2023-09-07T10:14:00;8.43;;;4.70;;
36441;SDS011;64346;50.820;16.274;2023-09-07T10:16:29;8.90;;;4.43;;
36441;SDS011;64346;50.820;16.274;2023-09-07T10:19:18;12.20;;;5.05;;
36441;SDS011;64346;50.820;16.274;2023-09-07T10:21:46;10.02;;;4.90;;
36441;SDS011;64346;50.820;16.274;2023-09-07T10:24:32;9.30;;;4.38;;
36441;SDS011;64346;50.820;16.274;2023-09-07T10:27:04;7.57;;;4.47;;
36441;SDS011;64346;50.820;16.274;2023-09-07T10:32:22;8.00;;;4.80;;
36441;SDS011;64346;50.820;16.274;2023-09-07T10:34:50;10.32;;;4.75;;
36441;SDS011;64346;50.820;16.274;2023-09-07T10:37:27;8.60;;;4.82;;
36441;SDS011;64346;50.820;16.274;2023-09-07T10:39:55;10.00;;;4.55;;
36441;SDS011;64346;50.820;16.274;2023-09-07T10:42:25;8.50;;;5.00;;
36441;SDS011;64346;50.820;16.274;2023-09-07T10:44:55;7.40;;;4.35;;
36441;SDS011;64346;50.820;16.274;2023-09-07T10:47:35;10.45;;;4.60;;
36441;SDS011;64346;50.820;16.274;2023-09-07T10:50:04;8.85;;;4.68;;
36441;SDS011;64346;50.820;16.274;2023-09-07T10:52:33;12.02;;;5.57;;
36441;SDS011;64346;50.820;16.274;2023-09-07T10:55:00;8.25;;;4.32;;
36441;SDS011;64346;50.820;16.274;2023-09-07T10:57:28;10.05;;;5.30;;
36441;SDS011;64346;50.820;16.274;2023-09-07T10:59:55;10.95;;;5.03;;
36441;SDS011;64346;50.820;16.274;2023-09-07T11:02:23;8.23;;;4.40;;
36441;SDS011;64346;50.820;16.274;2023-09-07T11:04:50;9.95;;;4.80;;
36441;SDS011;64346;50.820;16.274;2023-09-07T11:07:18;9.52;;;5.10;;
36441;SDS011;64346;50.820;16.274;2023-09-07T11:09:45;12.38;;;5.30;;
36441;SDS011;64346;50.820;16.274;2023-09-07T11:12:13;9.52;;;4.90;;
36441;SDS011;64346;50.820;16.274;2023-09-07T11:14:40;9.57;;;4.80;;
36441;SDS011;64346;50.820;16.274;2023-09-07T11:17:08;11.90;;;5.53;;
36441;SDS011;64346;50.820;16.274;2023-09-07T11:19:36;12.50;;;5.85;;
36441;SDS011;64346;50.820;16.274;2023-09-07T11:22:03;11.20;;;5.82;;
36441;SDS011;64346;50.820;16.274;2023-09-07T11:24:34;9.45;;;4.72;;
36441;SDS011;64346;50.820;16.274;2023-09-07T11:27:02;11.20;;;4.70;;
36441;SDS011;64346;50.820;16.274;2023-09-07T11:29:33;12.45;;;5.95;;
36441;SDS011;64346;50.820;16.274;2023-09-07T11:32:10;9.48;;;4.93;;
36441;SDS011;64346;50.820;16.274;2023-09-07T11:34:47;11.70;;;5.10;;
36441;SDS011;64346;50.820;16.274;2023-09-07T11:37:23;11.27;;;5.22;;
36441;SDS011;64346;50.820;16.274;2023-09-07T11:39:53;12.07;;;5.30;;
36441;SDS011;64346;50.820;16.274;2023-09-07T11:42:21;11.02;;;4.70;;
36441;SDS011;64346;50.820;16.274;2023-09-07T11:44:49;12.02;;;5.93;;
36441;SDS011;64346;50.820;16.274;2023-09-07T11:47:16;10.32;;;4.97;;
36441;SDS011;64346;50.820;16.274;2023-09-07T11:49:43;9.65;;;5.28;;
36441;SDS011;64346;50.820;16.274;2023-09-07T11:52:13;11.77;;;5.70;;
36441;SDS011;64346;50.820;16.274;2023-09-07T11:54:43;10.73;;;5.10;;
36441;SDS011;64346;50.820;16.274;2023-09-07T11:57:10;11.75;;;5.55;;
36441;SDS011;64346;50.820;16.274;2023-09-07T11:59:38;12.35;;;5.63;;
36441;SDS011;64346;50.820;16.274;2023-09-07T12:02:23;10.70;;;5.28;;
36441;SDS011;64346;50.820;16.274;2023-09-07T12:04:53;12.52;;;5.68;;
36441;SDS011;64346;50.820;16.274;2023-09-07T12:07:21;11.70;;;5.95;;
36441;SDS011;64346;50.820;16.274;2023-09-07T12:09:51;11.88;;;6.15;;
36441;SDS011;64346;50.820;16.274;2023-09-07T12:12:21;12.27;;;5.80;;
36441;SDS011;64346;50.820;16.274;2023-09-07T12:14:48;14.88;;;6.00;;
36441;SDS011;64346;50.820;16.274;2023-09-07T12:17:15;14.63;;;6.70;;
36441;SDS011;64346;50.820;16.274;2023-09-07T12:19:43;11.98;;;5.90;;
36441;SDS011;64346;50.820;16.274;2023-09-07T12:22:10;14.95;;;6.63;;
36441;SDS011;64346;50.820;16.274;2023-09-07T12:24:38;11.35;;;5.82;;
36441;SDS011;64346;50.820;16.274;2023-09-07T12:27:05;12.68;;;6.30;;
36441;SDS011;64346;50.820;16.274;2023-09-07T12:29:32;11.57;;;6.10;;
36441;SDS011;64346;50.820;16.274;2023-09-07T12:32:00;12.95;;;6.47;;
36441;SDS011;64346;50.820;16.274;2023-09-07T12:34:27;13.95;;;6.78;;
36441;SDS011;64346;50.820;16.274;2023-09-07T12:36:58;12.70;;;6.35;;
36441;SDS011;64346;50.820;16.274;2023-09-07T12:39:25;11.05;;;6.35;;
36441;SDS011;64346;50.820;16.274;2023-09-07T12:41:55;12.02;;;5.50;;
36441;SDS011;64346;50.820;16.274;2023-09-07T12:44:27;10.55;;;5.15;;
36441;SDS011;64346;50.820;16.274;2023-09-07T12:46:54;10.05;;;4.75;;
36441;SDS011;64346;50.820;16.274;2023-09-07T12:49:22;10.77;;;5.30;;
36441;SDS011;64346;50.820;16.274;2023-09-07T12:51:49;11.43;;;5.70;;
36441;SDS011;64346;50.820;16.274;2023-09-07T12:54:19;10.85;;;5.35;;
36441;SDS011;64346;50.820;16.274;2023-09-07T12:56:47;12.45;;;5.88;;
36441;SDS011;64346;50.820;16.274;2023-09-07T12:59:14;14.30;;;6.60;;
36441;SDS011;64346;50.820;16.274;2023-09-07T13:01:41;12.40;;;6.35;;
36441;SDS011;64346;50.820;16.274;2023-09-07T13:04:08;15.55;;;6.35;;
36441;SDS011;64346;50.820;16.274;2023-09-07T13:06:36;12.30;;;6.57;;
36441;SDS011;64346;50.820;16.274;2023-09-07T13:09:03;11.73;;;6.35;;
36441;SDS011;64346;50.820;16.274;2023-09-07T13:11:31;10.45;;;6.07;;
36441;SDS011;64346;50.820;16.274;2023-09-07T13:14:00;11.73;;;5.93;;
36441;SDS011;64346;50.820;16.274;2023-09-07T13:16:37;13.80;;;6.07;;
36441;SDS011;64346;50.820;16.274;2023-09-07T13:19:05;14.77;;;6.35;;
36441;SDS011;64346;50.820;16.274;2023-09-07T13:21:32;12.85;;;6.72;;
36441;SDS011;64346;50.820;16.274;2023-09-07T13:24:02;14.07;;;6.15;;
36441;SDS011;64346;50.820;16.274;2023-09-07T13:26:30;12.90;;;5.88;;
36441;SDS011;64346;50.820;16.274;2023-09-07T13:28:57;13.82;;;5.88;;
36441;SDS011;64346;50.820;16.274;2023-09-07T13:31:25;11.85;;;5.57;;
36441;SDS011;64346;50.820;16.274;2023-09-07T13:33:52;10.57;;;5.18;;
36441;SDS011;64346;50.820;16.274;2023-09-07T13:36:19;11.32;;;5.50;;
36441;SDS011;64346;50.820;16.274;2023-09-07T13:38:49;13.48;;;5.85;;
36441;SDS011;64346;50.820;16.274;2023-09-07T13:41:19;11.40;;;6.13;;
36441;SDS011;64346;50.820;16.274;2023-09-07T13:43:46;15.15;;;6.35;;
36441;SDS011;64346;50.820;16.274;2023-09-07T13:46:13;12.52;;;5.43;;
36441;SDS011;64346;50.820;16.274;2023-09-07T13:48:43;12.10;;;5.90;;
36441;SDS011;64346;50.820;16.274;2023-09-07T13:51:13;13.30;;;6.03;;
36441;SDS011;64346;50.820;16.274;2023-09-07T13:53:43;14.77;;;7.00;;
36441;SDS011;64346;50.820;16.274;2023-09-07T13:56:15;11.75;;;6.10;;
36441;SDS011;64346;50.820;16.274;2023-09-07T13:58:45;12.70;;;6.70;;
36441;SDS011;64346;50.820;16.274;2023-09-07T14:01:15;14.73;;;6.85;;
36441;SDS011;64346;50.820;16.274;2023-09-07T14:03:43;12.65;;;6.90;;
36441;SDS011;64346;50.820;16.274;2023-09-07T14:06:13;12.48;;;6.18;;
36441;SDS011;64346;50.820;16.274;2023-09-07T14:08:43;13.35;;;6.82;;
36441;SDS011;64346;50.820;16.274;2023-09-07T14:11:10;15.90;;;6.28;;
36441;SDS011;64346;50.820;16.274;2023-09-07T14:13:40;13.40;;;6.45;;
36441;SDS011;64346;50.820;16.274;2023-09-07T14:16:08;12.25;;;6.63;;
36441;SDS011;64346;50.820;16.274;2023-09-07T14:18:35;15.02;;;6.32;;
36441;SDS011;64346;50.820;16.274;2023-09-07T14:21:03;9.82;;;5.50;;
36441;SDS011;64346;50.820;16.274;2023-09-07T14:23:32;12.98;;;6.45;;
36441;SDS011;64346;50.820;16.274;2023-09-07T14:26:00;12.25;;;6.45;;
36441;SDS011;64346;50.820;16.274;2023-09-07T14:28:28;10.98;;;6.53;;
36441;SDS011;64346;50.820;16.274;2023-09-07T14:30:58;11.80;;;6.43;;
36441;SDS011;64346;50.820;16.274;2023-09-07T14:33:30;11.45;;;6.32;;
36441;SDS011;64346;50.820;16.274;2023-09-07T14:36:01;11.82;;;5.72;;
36441;SDS011;64346;50.820;16.274;2023-09-07T14:38:28;11.13;;;5.88;;
36441;SDS011;64346;50.820;16.274;2023-09-07T14:40:58;13.45;;;5.97;;
36441;SDS011;64346;50.820;16.274;2023-09-07T14:43:29;12.43;;;6.32;;
36441;SDS011;64346;50.820;16.274;2023-09-07T14:45:59;14.68;;;6.95;;
36441;SDS011;64346;50.820;16.274;2023-09-07T14:48:26;12.63;;;5.82;;
36441;SDS011;64346;50.820;16.274;2023-09-07T14:50:54;14.05;;;7.47;;
36441;SDS011;64346;50.820;16.274;2023-09-07T14:53:21;9.57;;;5.75;;